Latest Weather Observations for Canberra

IDN60901

Issued at 6:35 pm EST Tuesday 29 July 2014 (issued every 10 minutes, with the page automatically refreshed every 10 minutes)

About weather observations | Map of Canberra area stations | Latest observations for Canberra area | Other Formats
Station Details ID: 070351 Name: CANBERRA AIRPORT Lat: -35.31 Lon: 149.20 Height: 577.05 m
Data from the previous 72 hours. | See also: Recent months at Canberra
Date/Time
EST
Tmp

°C
App
Tmp
°C
Dew
Point
°C
Rel
Hum
%
Delta-T

°C
Wind Press
QNH
hPa
Press
MSL
hPa
Rain
since
9 am
mm
Dir
 
Spd
km/h
Gust
km/h
Spd
kts
Gust
kts
29/06:30pm 12.4 4.1 4.4 58 3.8 WNW 37 48 20 26 1015.1 - 0.0
29/06:00pm 12.3 3.6 4.3 58 3.7 NW 39 50 21 27 1015.0 1016.3 0.0
29/05:30pm 12.3 4.3 3.8 56 3.9 WNW 35 52 19 28 1014.6 - 0.0
29/05:28pm 12.7 5.0 3.6 54 4.2 NW 33 52 18 28 1014.5 - 0.0
29/05:00pm 12.7 4.4 4.2 56 4.0 NW 37 44 20 24 1014.5 - 0.0
29/04:30pm 13.8 5.1 4.1 52 4.6 NNW 39 56 21 30 1014.0 - 0.0
29/04:00pm 14.6 6.3 4.0 49 5.0 NNW 37 48 20 26 1013.5 - 0.0
29/03:30pm 15.3 7.8 4.4 48 5.2 NNW 33 48 18 26 1013.8 - 0.0
29/03:22pm 15.2 6.1 4.0 47 5.3 NNW 41 48 22 26 1013.7 - 0.0
29/03:13pm 15.4 7.5 4.2 47 5.4 NW 35 54 19 29 1013.8 - 0.0
29/03:00pm 15.5 7.1 3.9 46 5.5 NW 37 50 20 27 1013.7 1014.9 0.0
29/02:54pm 15.7 7.0 4.1 46 5.6 NW 39 50 21 27 1013.5 - 0.0
29/02:44pm 15.8 7.8 3.9 45 5.7 NNW 35 48 19 26 1013.7 - 0.0
29/02:42pm 16.0 6.9 4.1 45 5.7 NW 41 48 22 26 1013.8 - 0.0
29/02:30pm 16.3 9.0 4.4 45 5.8 NNW 32 52 17 28 1014.0 - 0.0
29/02:00pm 16.4 9.2 4.8 46 5.7 NNW 32 52 17 28 1013.9 - 0.0
29/01:52pm 15.8 9.1 3.9 45 5.7 NNW 28 50 15 27 1014.0 - 0.0
29/01:30pm 15.9 9.6 4.0 45 5.7 NNW 26 41 14 22 1013.3 - 0.0
29/01:25pm 15.8 8.9 4.5 47 5.5 NNW 30 48 16 26 1013.0 - 0.0
29/01:00pm 15.6 8.1 3.4 44 5.8 NNW 32 48 17 26 1014.1 - 0.0
29/12:30pm 15.8 9.3 4.5 47 5.5 NNW 28 41 15 22 1015.1 - 0.0
29/12:00pm 15.3 7.3 3.8 46 5.5 NW 35 48 19 26 1015.3 1016.6 0.0
29/11:30am 15.5 8.8 3.9 46 5.5 NW 28 37 15 20 1015.3 - 0.0
29/11:00am 13.5 5.9 3.8 52 4.5 NNW 33 41 18 22 1015.3 - 0.0
29/10:30am 13.3 7.3 3.1 50 4.7 N 24 33 13 18 1016.7 - 0.0
29/10:00am 12.5 6.4 2.7 51 4.4 N 24 28 13 15 1016.7 - 0.0
29/09:30am 11.4 4.7 1.6 51 4.3 N 26 33 14 18 1016.5 - 0.0
29/09:00am 10.8 4.1 1.6 53 4.0 N 26 33 14 18 1016.4 1017.7 0.0
29/08:30am 9.8 2.4 1.7 57 3.5 N 30 37 16 20 1016.3 - 0.0
29/08:00am 8.5 0.7 1.4 61 3.0 NNW 32 37 17 20 1015.9 - 0.0
29/07:30am 7.9 0.1 1.5 64 2.7 NNW 32 37 17 20 1015.9 - 0.0
29/07:00am 7.9 0.4 1.3 63 2.8 NNW 30 39 16 21 1015.8 - 0.0
29/06:30am 7.8 1.1 1.4 64 2.7 NNW 26 37 14 20 1015.6 - 0.0
29/06:00am 8.5 0.5 1.4 61 3.0 NW 33 41 18 22 1015.3 1016.6 0.0
29/05:30am 8.1 1.1 1.9 65 2.7 NNW 28 41 15 22 1015.2 - 0.0
29/05:00am 8.4 1.4 2.2 65 2.7 N 28 35 15 19 1015.3 - 0.0
29/04:30am 8.2 1.6 1.8 64 2.7 N 26 33 14 18 1015.7 - 0.0
29/04:00am 8.9 2.3 2.0 62 3.0 N 26 33 14 18 1015.8 - 0.0
29/03:30am 8.7 2.2 2.5 65 2.7 N 26 32 14 17 1015.9 - 0.0
29/03:00am 8.3 3.0 3.0 69 2.3 NNW 20 32 11 17 1016.0 1017.3 0.0
29/02:30am 7.3 4.1 2.8 73 2.0 WNW 9 13 5 7 1016.3 - 0.0
29/02:00am 8.1 3.0 3.2 71 2.2 N 19 24 10 13 1016.3 - 0.0
29/01:30am 8.6 2.2 3.2 69 2.4 NNW 26 30 14 16 1016.6 - 0.0
29/01:00am 8.6 2.6 3.2 69 2.4 N 24 32 13 17 1016.9 - 0.0
29/12:30am 8.3 3.2 3.2 70 2.3 NNW 19 24 10 13 1017.4 - 0.0
29/12:00am 8.1 3.9 3.6 73 2.0 NNW 15 24 8 13 1017.6 1018.9 0.0
 
Date/Time
EST
Tmp

°C
App
Tmp
°C
Dew
Point
°C
Rel
Hum
%
Delta-T

°C
Wind Press
QNH
hPa
Press
MSL
hPa
Rain
since
9 am
mm
Dir
 
Spd
km/h
Gust
km/h
Spd
kts
Gust
kts
28/11:30pm 8.0 3.4 3.5 73 2.0 NNW 17 20 9 11 1018.1 - 0.0
28/11:00pm 8.7 3.6 4.3 74 2.0 NNW 20 28 11 15 1018.0 - 0.0
28/10:30pm 8.6 2.5 4.6 76 1.8 NNW 26 32 14 17 1017.7 - 0.0
28/10:00pm 8.8 4.0 4.8 76 1.8 NNW 19 28 10 15 1018.2 - 0.0
28/09:30pm 8.8 4.2 5.5 80 1.5 N 19 24 10 13 1018.4 - 0.0
28/09:00pm 8.4 2.8 5.5 82 1.3 NNW 24 28 13 15 1018.4 1019.7 0.0
28/08:30pm 8.8 3.2 5.5 80 1.5 NNW 24 30 13 16 1018.5 - 0.0
28/08:00pm 8.9 3.7 5.6 80 1.5 NNW 22 30 12 16 1018.8 - 0.0
28/07:30pm 8.4 3.2 5.7 83 1.3 NNW 22 32 12 17 1018.8 - 0.0
28/07:00pm 7.9 3.0 5.0 82 1.3 NNW 20 26 11 14 1018.8 - 0.0
28/06:30pm 8.5 3.9 5.4 81 1.4 NNW 19 24 10 13 1018.9 - 0.0
28/06:00pm 8.1 3.7 4.5 78 1.6 NNW 17 20 9 11 1018.7 1020.0 0.0
28/05:30pm 8.8 4.0 4.6 75 1.9 NNW 19 26 10 14 1018.7 - 0.0
28/05:00pm 10.0 5.7 5.2 72 2.3 NNW 17 20 9 11 1018.5 - 0.0
28/04:30pm 10.6 5.7 4.9 68 2.7 NNW 20 24 11 13 1018.3 - 0.0
28/04:00pm 11.0 5.3 5.1 67 2.8 NNW 24 32 13 17 1018.3 - 0.0
28/03:30pm 11.3 6.0 5.0 65 3.0 NNW 22 30 12 16 1018.4 - 0.0
28/03:00pm 12.4 7.5 5.1 61 3.5 NW 20 32 11 17 1018.6 1019.9 0.0
28/02:30pm 11.8 7.2 5.7 66 2.9 NNW 19 28 10 15 1018.5 - 0.0
28/02:00pm 11.2 6.0 5.7 69 2.6 NNW 22 30 12 16 1018.9 - 0.0
28/01:30pm 12.0 6.4 5.2 63 3.2 NW 24 33 13 18 1019.1 - 0.0
28/01:00pm 12.3 6.4 5.7 64 3.2 NW 26 35 14 19 1019.4 - 0.0
28/12:30pm 11.9 4.7 5.1 63 3.2 NW 32 41 17 22 1019.9 - 0.0
28/12:00pm 10.3 3.1 6.1 75 2.0 NNW 33 43 18 23 1020.2 1021.5 0.0
28/11:30am 10.0 3.6 5.4 73 2.2 NW 28 32 15 17 1020.9 - 0.0
28/11:23am 10.4 4.2 6.0 74 2.1 NW 28 37 15 20 1021.1 - 0.0
28/11:00am 8.8 6.1 5.5 80 1.5 SW 9 11 5 6 1021.5 - 0.0
28/10:30am 7.3 5.2 6.7 96 0.3 N 7 11 4 6 1021.9 - 0.0
28/10:00am 4.8 2.3 4.7 99 0.0 SE 7 9 4 5 1021.9 - 0.0
28/09:30am 3.7 1.2 3.6 99 0.0 SE 6 7 3 4 1022.0 - 0.0
28/09:00am 1.4 -1.5 1.3 99 0.0 S 6 7 3 4 1022.2 1023.6 0.0
28/08:30am -0.4 -2.5 -0.5 99 0.0 CALM 0 0 0 0 1022.0 - 0.0
28/08:00am -1.1 -3.3 -1.2 99 0.0 CALM 0 - 0 - 1022.0 - 0.0
28/07:30am -1.9 -4.2 -2.0 99 -0.1 CALM 0 - 0 - 1021.9 - 0.0
28/07:20am -2.2 -4.5 -2.3 99 -0.1 CALM 0 - 0 - 1022.0 - 0.0
28/07:00am -2.0 -4.3 -2.3 98 0.0 CALM 0 - 0 - 1021.7 - 0.0
28/06:50am -2.1 -4.4 -2.2 99 -0.1 CALM 0 - 0 - 1021.5 - 0.0
28/06:30am -1.7 -5.1 -2.0 98 0.0 SE 6 7 3 4 1021.3 - 0.0
28/06:11am -1.0 -4.8 -1.1 99 0.0 SSW 9 9 5 5 1021.4 - 0.0
28/06:00am -1.0 -3.2 -1.3 98 0.1 CALM 0 4 0 2 1021.5 1022.8 0.0
28/05:30am -0.4 -4.5 -0.5 99 0.0 ESE 11 13 6 7 1021.2 - 0.0
28/05:00am -1.3 -5.3 -1.9 96 0.2 SE 9 13 5 7 1021.3 - 0.0
28/04:45am -0.8 -4.8 -2.1 91 0.4 SSW 9 17 5 9 1021.3 - 0.0
28/04:30am 1.6 -0.4 0.1 90 0.6 CALM 0 0 0 0 1020.5 - 0.0
28/04:00am 4.2 2.3 2.7 90 0.6 NW 2 7 1 4 1021.1 - 0.0
28/03:30am 2.6 -0.4 2.0 96 0.2 WSW 7 13 4 7 1021.1 - 0.0
28/03:00am 3.1 -0.3 1.9 92 0.5 N 9 11 5 6 1020.8 1022.2 0.0
28/02:30am 4.2 0.2 3.0 92 0.5 N 13 15 7 8 1021.3 - 0.0
28/02:00am 3.9 0.7 2.9 93 0.4 NNW 9 13 5 7 1021.4 - 0.0
28/01:30am 4.5 1.4 3.8 95 0.3 N 9 11 5 6 1021.4 - 0.0
28/01:00am 3.3 0.4 1.7 89 0.6 NNW 6 9 3 5 1022.0 - 0.0
28/12:30am 4.6 0.7 3.4 92 0.5 N 13 15 7 8 1021.9 - 0.0
28/12:00am 5.1 1.3 3.8 91 0.6 NNE 13 19 7 10 1021.9 1023.3 0.0
 
Date/Time
EST
Tmp

°C
App
Tmp
°C
Dew
Point
°C
Rel
Hum
%
Delta-T

°C
Wind Press
QNH
hPa
Press
MSL
hPa
Rain
since
9 am
mm
Dir
 
Spd
km/h
Gust
km/h
Spd
kts
Gust
kts
27/11:30pm 6.0 1.5 4.3 89 0.8 N 17 22 9 12 1022.1 - 0.0
27/11:00pm 6.7 1.4 4.9 88 0.8 N 22 26 12 14 1022.6 - 0.0
27/10:30pm 6.4 -0.1 4.7 89 0.8 N 28 32 15 17 1022.4 - 0.0
27/10:00pm 6.9 1.6 4.9 87 0.9 NNW 22 28 12 15 1022.6 - 0.0
27/09:30pm 6.8 1.5 5.1 89 0.8 NNW 22 32 12 17 1022.7 - 0.0
27/09:00pm 6.7 2.7 4.9 88 0.8 N 15 19 8 10 1022.8 1024.2 0.0
27/08:30pm 6.8 2.1 5.0 88 0.8 N 19 22 10 12 1022.7 - 0.0
27/08:00pm 6.8 1.9 5.3 90 0.7 N 20 24 11 13 1022.6 - 0.0
27/07:30pm 7.0 2.3 5.2 88 0.8 N 19 24 10 13 1022.7 - 0.0
27/07:00pm 7.3 2.4 5.3 87 0.9 N 20 26 11 14 1022.7 - 0.0
27/06:30pm 7.3 2.6 5.1 86 1.0 NNE 19 24 10 13 1022.7 - 0.0
27/06:00pm 8.0 3.7 5.3 83 1.2 N 17 28 9 15 1022.6 1024.0 0.0
27/05:30pm 8.4 3.5 5.2 80 1.5 NNW 20 32 11 17 1022.4 - 0.0
27/05:00pm 9.4 3.4 5.2 75 2.0 N 26 35 14 19 1021.9 - 0.0
27/04:30pm 10.4 4.8 5.4 71 2.4 NNW 24 30 13 16 1022.0 - 0.0
27/04:00pm 11.4 5.5 5.9 69 2.6 NNW 26 33 14 18 1022.0 - 0.0
27/03:30pm 11.6 4.9 5.7 67 2.8 NNW 30 35 16 19 1021.9 - 0.0
27/03:00pm 12.7 6.5 6.1 64 3.2 NNW 28 35 15 19 1021.7 1023.0 0.0
27/02:30pm 12.7 6.4 5.8 63 3.3 N 28 35 15 19 1021.9 - 0.0
27/02:00pm 12.9 7.4 6.0 63 3.4 N 24 32 13 17 1022.0 - 0.0
27/01:30pm 13.0 8.3 6.1 63 3.4 N 20 28 11 15 1022.2 - 0.0
27/01:00pm 13.7 9.3 4.8 55 4.3 N 17 26 9 14 1022.6 - 0.0
27/12:30pm 12.0 9.0 4.0 58 3.7 NW 9 19 5 10 1023.3 - 0.0
27/12:00pm 11.6 9.0 5.9 68 2.7 N 9 13 5 7 1023.7 1025.1 0.0
27/11:30am 11.0 8.5 6.6 74 2.1 N 9 15 5 8 1024.3 - 0.0
27/11:00am 9.5 6.7 5.3 75 2.0 N 9 11 5 6 1025.0 - 0.0
27/10:30am 8.5 6.1 5.4 81 1.4 NNW 7 11 4 6 1025.6 - 0.0
27/10:00am 6.2 3.6 4.4 88 0.8 N 7 9 4 5 1026.0 - 0.0
27/09:30am 4.3 1.1 3.0 91 0.6 NNW 9 11 5 6 1025.8 - 0.0
27/09:00am 4.2 2.9 4.1 99 0.0 CALM 0 4 0 2 1025.6 1027.0 0.0
27/08:30am 1.2 -0.6 1.1 99 0.0 CALM 0 0 0 0 1025.6 - 0.0
27/08:00am -0.9 -3.0 -1.0 99 0.0 CALM 0 0 0 0 1025.5 - 0.0
27/07:30am -3.5 -6.0 -3.6 99 -0.1 CALM 0 0 0 0 1025.1 - 0.0
27/07:14am -3.3 -6.9 -3.4 99 -0.1 N 6 7 3 4 1025.0 - 0.0
27/07:00am -3.6 -6.1 -3.7 99 -0.1 CALM 0 0 0 0 1025.0 - 0.0
27/06:43am -1.9 -4.2 -2.0 99 -0.1 CALM 0 - 0 - 1024.8 - 0.0
27/06:30am -2.7 -5.1 -2.8 99 -0.1 CALM 0 0 0 0 1024.6 - 0.0
27/06:00am -2.8 -6.3 -2.9 99 -0.1 NW 6 7 3 4 1024.2 1025.6 0.0
27/05:45am -3.2 -6.8 -3.3 99 -0.1 NW 6 7 3 4 1023.9 - 0.0
27/05:43am -3.2 -6.8 -3.3 99 -0.1 NW 6 7 3 4 1023.9 - 0.0
27/05:37am -2.8 -5.6 -2.9 99 -0.1 ENE 2 7 1 4 1024.0 - 0.0
27/05:30am -1.6 -3.8 -1.7 99 0.0 CALM 0 0 0 0 1024.0 - 0.0
27/05:00am -2.2 -4.9 -2.3 99 -0.1 E 2 7 1 4 1024.1 - 0.0
27/04:56am -2.3 -4.6 -2.4 99 -0.1 CALM 0 0 0 0 1024.0 - 0.0
27/04:30am -3.1 -5.9 -3.2 99 -0.1 ENE 2 6 1 3 1023.9 - 0.0
27/04:10am -2.2 -5.3 -2.3 99 -0.1 ENE 4 7 2 4 1023.7 - 0.0
27/04:00am -1.7 -3.9 -1.8 99 0.0 CALM 0 0 0 0 1023.9 - 0.0
27/03:59am -1.9 -4.2 -2.2 98 0.0 CALM 0 0 0 0 1023.9 - 0.0
27/03:54am -2.9 -5.3 -3.4 96 0.0 CALM 0 6 0 3 1023.9 - 0.0
27/03:30am -1.1 -4.6 -1.4 98 0.1 N 7 9 4 5 1024.1 - 0.0
27/03:00am -0.5 -2.6 -0.6 99 0.0 CALM 0 0 0 0 1024.1 1025.5 0.0
27/02:32am -0.9 -3.1 -1.2 98 0.1 CALM 0 0 0 0 1024.0 - 0.0
27/02:30am -0.8 -2.9 -1.1 98 0.1 CALM 0 0 0 0 1024.0 - 0.0
27/02:12am -0.7 -2.8 -0.8 99 0.0 CALM 0 0 0 0 1024.0 - 0.0
27/02:02am 0.1 -1.9 0.0 99 0.0 CALM 0 0 0 0 1024.0 - 0.0
27/02:00am 0.2 -1.8 0.1 99 0.0 CALM 0 0 0 0 1024.1 - 0.0
27/01:39am 0.2 -1.8 0.1 99 0.0 CALM 0 0 0 0 1023.9 - 0.0
27/01:30am 0.2 -1.8 0.1 99 0.0 CALM 0 0 0 0 1024.0 - 0.0
27/01:29am 0.1 -1.9 0.0 99 0.0 CALM 0 0 0 0 1024.0 - 0.0
27/01:09am 0.4 -1.5 0.3 99 0.0 CALM 0 2 0 1 1024.0 - 0.0
27/01:00am 0.3 -2.8 0.2 99 0.0 SW 6 7 3 4 1024.0 - 0.0
27/12:30am 1.0 -0.8 0.9 99 0.0 CALM 0 0 0 0 1024.0 - 0.0
27/12:00am 1.1 -0.8 0.8 98 0.1 CALM 0 0 0 0 1024.2 1025.6 0.0
 
Date/Time
EST
Tmp

°C
App
Tmp
°C
Dew
Point
°C
Rel
Hum
%
Delta-T

°C
Wind Press
QNH
hPa
Press
MSL
hPa
Rain
since
9 am
mm
Dir
 
Spd
km/h
Gust
km/h
Spd
kts
Gust
kts
26/11:30pm 1.2 -1.8 0.6 96 0.2 ESE 6 9 3 5 1024.4 - 0.0
26/11:00pm 0.9 -2.2 0.2 95 0.3 ESE 6 7 3 4 1024.4 - 0.0
26/10:30pm 0.7 -2.7 -0.9 89 0.6 SE 7 11 4 6 1024.2 - 0.0
26/10:00pm 3.7 0.8 2.4 91 0.5 NE 7 7 4 4 1024.3 - 0.0
26/09:30pm 4.7 1.8 2.4 85 1.0 NE 7 7 4 4 1024.1 - 0.0
26/09:00pm 4.7 1.0 2.4 85 1.0 NE 11 11 6 6 1024.1 1025.5 0.0
26/08:30pm 5.9 2.6 2.7 80 1.4 NNE 9 11 5 6 1024.0 - 0.0
26/08:00pm 6.9 3.8 3.5 79 1.5 NNE 9 9 5 5 1023.7 - 0.0
26/07:30pm 8.0 3.8 3.7 74 1.9 W 15 19 8 10 1023.6 - 0.0
26/07:00pm 8.6 4.4 4.0 73 2.1 WNW 15 19 8 10 1023.4 - 0.0

Latest Capital City Observations: Canberra | Sydney | Melbourne | Brisbane | Adelaide | Perth | Hobart | Darwin

Other Formats:

Comma delimited format used in spreadsheet applications
http://www.bom.gov.au/fwo/IDN60903/IDN60903.94926.axf

JavaScript Object Notation format (JSON) in row-major order
http://www.bom.gov.au/fwo/IDN60903/IDN60903.94926.json